createdAt,value
2023-03-10T00:02:10.059Z,7.80
2023-03-10T00:04:37.269Z,7.80
2023-03-10T00:07:06.506Z,7.90
2023-03-10T00:09:33.673Z,7.90
2023-03-10T00:12:00.874Z,8.00
2023-03-10T00:14:27.972Z,8.00
2023-03-10T00:16:56.369Z,8.00
2023-03-10T00:19:23.454Z,8.00
2023-03-10T00:21:50.548Z,8.10
2023-03-10T00:24:17.631Z,8.10
2023-03-10T00:26:45.657Z,8.10
2023-03-10T00:29:12.847Z,8.10
2023-03-10T00:31:39.962Z,8.10
2023-03-10T00:34:08.543Z,8.10
2023-03-10T00:36:35.632Z,8.10
2023-03-10T00:39:03.566Z,8.10
2023-03-10T00:41:31.426Z,8.00
2023-03-10T00:43:58.645Z,8.10
2023-03-10T00:46:25.849Z,8.10
2023-03-10T00:48:53.094Z,8.00
2023-03-10T00:51:20.119Z,8.00
2023-03-10T00:53:47.960Z,8.00
2023-03-10T00:56:20.092Z,8.00
2023-03-10T00:58:47.453Z,8.00
2023-03-10T01:01:18.771Z,8.00
2023-03-10T01:03:46.018Z,8.00
2023-03-10T01:06:13.148Z,8.00
2023-03-10T01:08:40.200Z,8.00
2023-03-10T01:11:07.331Z,8.00
2023-03-10T01:13:34.400Z,8.00
2023-03-10T01:16:01.556Z,8.00
2023-03-10T01:18:28.694Z,7.90
2023-03-10T01:20:55.738Z,7.90
2023-03-10T01:23:23.868Z,7.90
2023-03-10T01:25:51.081Z,7.90
2023-03-10T01:28:19.394Z,7.90
2023-03-10T01:30:46.636Z,7.90
2023-03-10T01:33:14.115Z,7.80
2023-03-10T01:35:41.319Z,7.80
2023-03-10T01:38:08.515Z,7.80
2023-03-10T01:40:36.059Z,7.80
2023-03-10T01:43:22.171Z,7.70
2023-03-10T01:45:52.223Z,7.70
2023-03-10T01:48:19.704Z,7.70
2023-03-10T01:50:48.757Z,7.70
2023-03-10T01:53:16.382Z,7.70
2023-03-10T01:55:46.452Z,7.70
2023-03-10T01:58:15.890Z,7.70
2023-03-10T02:00:43.073Z,7.70
2023-03-10T02:03:12.898Z,7.70
2023-03-10T02:05:44.169Z,7.60
2023-03-10T02:08:12.936Z,7.60
2023-03-10T02:10:40.030Z,7.60
2023-03-10T02:13:07.140Z,7.60
2023-03-10T02:15:34.334Z,7.50
2023-03-10T02:18:02.062Z,7.50
2023-03-10T02:20:30.118Z,7.40
2023-03-10T02:22:59.563Z,7.40
2023-03-10T02:25:32.746Z,7.40
2023-03-10T02:27:59.969Z,7.30
2023-03-10T02:30:28.948Z,7.30
2023-03-10T02:32:57.808Z,7.20
2023-03-10T02:35:25.226Z,7.10
2023-03-10T02:38:00.319Z,7.10
2023-03-10T02:40:36.744Z,7.00
2023-03-10T02:43:21.904Z,7.00
2023-03-10T02:45:53.829Z,6.90
2023-03-10T02:48:28.342Z,6.90
2023-03-10T02:50:56.215Z,6.80
2023-03-10T02:53:24.809Z,6.80
2023-03-10T02:55:52.011Z,6.70
2023-03-10T02:58:20.541Z,6.60
2023-03-10T03:00:48.797Z,6.60
2023-03-10T03:03:16.700Z,6.60
2023-03-10T03:05:45.136Z,6.50
2023-03-10T03:08:12.271Z,6.50
2023-03-10T03:10:39.957Z,6.50
2023-03-10T03:13:08.596Z,6.50
2023-03-10T03:15:38.230Z,6.50
2023-03-10T03:18:05.428Z,6.50
2023-03-10T03:20:34.010Z,6.50
2023-03-10T03:23:05.272Z,6.50
2023-03-10T03:25:34.563Z,6.50
2023-03-10T03:28:01.771Z,6.50
2023-03-10T03:30:28.946Z,6.50
2023-03-10T03:32:57.906Z,6.50
2023-03-10T03:35:28.258Z,6.50
2023-03-10T03:37:55.449Z,6.50
2023-03-10T03:40:24.562Z,6.50
2023-03-10T03:42:52.990Z,6.50
2023-03-10T03:45:21.054Z,6.40
2023-03-10T03:47:48.728Z,6.40
2023-03-10T03:50:17.404Z,6.40
2023-03-10T03:52:45.273Z,6.40
2023-03-10T03:55:14.670Z,6.40
2023-03-10T03:57:46.850Z,6.40
2023-03-10T04:00:16.102Z,6.40
2023-03-10T04:02:46.736Z,6.40
2023-03-10T04:05:23.428Z,6.40
2023-03-10T04:07:50.976Z,6.40
2023-03-10T04:10:20.277Z,6.40
2023-03-10T04:16:26.309Z,6.40
2023-03-10T04:18:53.650Z,6.40
2023-03-10T04:21:40.288Z,6.40
2023-03-10T04:24:08.098Z,6.40
2023-03-10T04:26:36.055Z,6.50
2023-03-10T04:29:05.729Z,6.50
2023-03-10T04:31:35.391Z,6.50
2023-03-10T04:34:03.647Z,6.60
2023-03-10T04:36:35.984Z,6.60
2023-03-10T04:39:05.050Z,6.70
2023-03-10T04:41:32.688Z,6.80
2023-03-10T04:44:03.858Z,6.80
2023-03-10T04:46:32.718Z,6.90
2023-03-10T04:49:00.321Z,7.00
2023-03-10T04:51:29.510Z,7.00
2023-03-10T04:54:06.872Z,7.00
2023-03-10T04:56:34.001Z,7.10
2023-03-10T04:59:02.105Z,7.20
2023-03-10T05:01:32.963Z,7.30
2023-03-10T05:04:03.186Z,7.40
2023-03-10T05:06:30.611Z,7.40
2023-03-10T05:09:17.903Z,7.50
2023-03-10T05:11:45.974Z,7.60
2023-03-10T05:14:19.872Z,7.60
2023-03-10T05:16:48.570Z,7.70
2023-03-10T05:19:16.062Z,7.70
2023-03-10T05:21:46.891Z,7.80
2023-03-10T05:24:15.143Z,7.80
2023-03-10T05:26:42.340Z,7.90
2023-03-10T05:29:09.632Z,7.90
2023-03-10T05:31:45.092Z,7.90
2023-03-10T05:34:18.455Z,7.90
2023-03-10T05:36:46.833Z,8.00
2023-03-10T05:39:17.507Z,8.00
2023-03-10T05:41:48.558Z,8.10
2023-03-10T05:44:16.210Z,8.10
2023-03-10T05:47:14.054Z,8.20
2023-03-10T05:49:41.195Z,8.20
2023-03-10T05:52:09.024Z,8.20
2023-03-10T05:54:38.046Z,8.20
2023-03-10T05:57:13.529Z,8.20
2023-03-10T05:59:41.754Z,8.30
2023-03-10T06:02:08.844Z,8.30
2023-03-10T06:04:40.154Z,8.30
2023-03-10T06:07:07.218Z,8.40
2023-03-10T06:09:35.418Z,8.40
2023-03-10T06:12:02.471Z,8.40
2023-03-10T06:14:29.551Z,8.40
2023-03-10T06:17:11.142Z,8.40
2023-03-10T06:19:38.191Z,8.40
2023-03-10T06:22:05.251Z,8.40
2023-03-10T06:24:58.639Z,8.40
2023-03-10T06:27:25.737Z,8.40
2023-03-10T06:29:52.856Z,8.30
2023-03-10T06:32:51.823Z,8.40
2023-03-10T06:35:19.194Z,8.40
2023-03-10T06:38:00.650Z,8.40
2023-03-10T06:40:27.762Z,8.40
2023-03-10T06:43:05.097Z,8.40
2023-03-10T06:45:32.246Z,8.50
2023-03-10T06:47:59.311Z,8.50
2023-03-10T06:50:32.695Z,8.50
2023-03-10T06:52:59.785Z,8.50
2023-03-10T06:55:27.008Z,8.60
2023-03-10T06:58:28.881Z,8.60
2023-03-10T07:00:56.034Z,8.70
2023-03-10T07:03:26.015Z,8.80
2023-03-10T07:05:53.325Z,8.90
2023-03-10T07:08:20.500Z,9.00
2023-03-10T07:10:47.756Z,9.00
2023-03-10T07:13:16.322Z,9.00
2023-03-10T07:15:44.022Z,9.00
2023-03-10T07:18:11.106Z,9.10
2023-03-10T07:20:42.052Z,9.10
2023-03-10T07:23:19.634Z,9.20
2023-03-10T07:25:46.708Z,9.20
2023-03-10T07:28:14.054Z,9.30
2023-03-10T07:30:41.562Z,9.30
2023-03-10T07:33:08.655Z,9.40
2023-03-10T07:35:37.055Z,9.40
2023-03-10T07:38:04.539Z,9.50
2023-03-10T07:40:31.610Z,9.50
2023-03-10T07:42:58.954Z,9.50
2023-03-10T07:45:28.529Z,9.50
2023-03-10T07:47:55.581Z,9.60
2023-03-10T07:50:22.701Z,9.60
2023-03-10T07:52:49.907Z,9.60
2023-03-10T07:55:17.334Z,9.60
2023-03-10T07:57:44.493Z,9.60
2023-03-10T08:00:11.917Z,9.60
2023-03-10T08:02:39.454Z,9.60
2023-03-10T08:05:07.033Z,9.60
2023-03-10T08:07:34.190Z,9.60
2023-03-10T08:10:01.263Z,9.60
2023-03-10T08:12:28.441Z,9.70
2023-03-10T08:14:55.543Z,9.70
2023-03-10T08:17:24.455Z,9.80
2023-03-10T08:19:51.472Z,9.90
2023-03-10T08:22:20.239Z,10.00
2023-03-10T08:24:48.262Z,10.00
2023-03-10T08:27:15.385Z,10.10
2023-03-10T08:29:42.411Z,10.10
2023-03-10T08:32:43.690Z,10.20
2023-03-10T08:35:11.048Z,10.30
2023-03-10T08:37:38.677Z,10.40
2023-03-10T08:40:08.038Z,10.40
2023-03-10T08:42:36.951Z,10.50
2023-03-10T08:45:05.381Z,10.50
2023-03-10T08:47:33.967Z,10.50
2023-03-10T08:50:01.020Z,10.60
2023-03-10T08:52:30.144Z,10.70
2023-03-10T08:55:19.830Z,10.70
2023-03-10T08:57:46.886Z,10.80
2023-03-10T09:00:17.346Z,10.80
2023-03-10T09:02:44.539Z,10.90
2023-03-10T09:05:11.690Z,10.90
2023-03-10T09:07:39.938Z,11.00
2023-03-10T09:10:07.136Z,11.10
2023-03-10T09:12:39.350Z,11.20
2023-03-10T09:15:06.767Z,11.40
2023-03-10T09:17:33.877Z,11.60
2023-03-10T09:20:00.899Z,11.80
2023-03-10T09:22:30.062Z,11.80
2023-03-10T09:24:59.460Z,11.90
2023-03-10T09:27:56.734Z,11.90
2023-03-10T09:30:23.901Z,11.90
2023-03-10T09:32:55.768Z,12.00
2023-03-10T09:35:23.198Z,12.10
2023-03-10T09:38:19.760Z,12.20
2023-03-10T09:40:49.379Z,12.20
2023-03-10T09:43:19.663Z,12.20
2023-03-10T09:45:47.811Z,12.20
2023-03-10T09:48:27.546Z,12.30
2023-03-10T09:51:23.643Z,12.20
2023-03-10T09:53:55.472Z,12.20
2023-03-10T09:56:29.798Z,12.10
2023-03-10T09:59:42.087Z,12.10
2023-03-10T10:02:15.818Z,12.10
2023-03-10T10:04:44.178Z,12.00
2023-03-10T10:08:06.569Z,12.00
2023-03-10T10:10:36.425Z,12.00
2023-03-10T10:13:14.354Z,11.90
2023-03-10T10:15:44.347Z,11.70
2023-03-10T10:18:20.002Z,11.50
2023-03-10T10:20:47.898Z,11.20
2023-03-10T10:23:35.914Z,11.10
2023-03-10T10:26:32.646Z,10.90
2023-03-10T10:29:00.564Z,10.80
2023-03-10T10:31:28.672Z,10.80
2023-03-10T10:33:55.844Z,10.70
2023-03-10T10:36:24.562Z,10.50
2023-03-10T10:38:55.139Z,10.40
2023-03-10T10:41:32.179Z,10.20
2023-03-10T10:44:00.324Z,10.10
2023-03-10T10:46:28.385Z,10.00
2023-03-10T10:49:02.915Z,9.80
2023-03-10T10:51:35.848Z,9.70
2023-03-10T10:54:05.006Z,9.60
2023-03-10T10:56:32.117Z,9.50
2023-03-10T10:59:02.202Z,9.50
2023-03-10T11:05:11.725Z,9.40
2023-03-10T11:07:39.009Z,9.40
2023-03-10T11:10:10.320Z,9.40
2023-03-10T11:12:52.462Z,9.40
2023-03-10T11:15:22.596Z,9.40
2023-03-10T11:18:18.811Z,9.40
2023-03-10T11:20:51.725Z,9.40
2023-03-10T11:23:18.848Z,9.50
2023-03-10T11:25:50.728Z,9.50
2023-03-10T11:28:28.133Z,9.50
2023-03-10T11:31:01.980Z,9.60
2023-03-10T11:33:35.396Z,9.70
2023-03-10T11:36:10.936Z,9.80
2023-03-10T11:38:42.372Z,10.00
2023-03-10T11:41:09.746Z,10.30
2023-03-10T11:43:40.799Z,10.50
2023-03-10T11:46:13.715Z,10.60
2023-03-10T11:49:01.004Z,10.70
2023-03-10T11:51:30.152Z,10.80
2023-03-10T11:53:58.853Z,11.00
2023-03-10T11:56:26.515Z,11.20
2023-03-10T11:59:18.083Z,11.40
2023-03-10T12:01:48.483Z,11.60
2023-03-10T12:04:16.983Z,11.80
2023-03-10T12:07:11.809Z,12.00
2023-03-10T12:09:46.527Z,12.10
2023-03-10T12:12:25.995Z,12.20
2023-03-10T12:14:53.498Z,12.30
2023-03-10T12:17:20.645Z,12.30
2023-03-10T12:20:16.552Z,12.40
2023-03-10T12:22:48.056Z,12.40
2023-03-10T12:25:33.167Z,12.30
2023-03-10T12:28:12.593Z,12.30
2023-03-10T12:30:46.464Z,12.30
2023-03-10T12:33:41.291Z,12.30
2023-03-10T12:36:52.013Z,12.30
2023-03-10T12:39:26.890Z,12.30
2023-03-10T12:41:55.203Z,12.40
2023-03-10T12:44:22.245Z,12.50
2023-03-10T12:46:50.109Z,12.60
2023-03-10T12:49:20.699Z,12.60
2023-03-10T12:52:14.170Z,12.50
2023-03-10T12:54:41.660Z,12.30
2023-03-10T12:57:15.859Z,12.20
2023-03-10T12:59:46.107Z,12.30
2023-03-10T13:02:25.855Z,12.30
2023-03-10T13:04:55.513Z,12.20
2023-03-10T13:07:22.622Z,12.20
2023-03-10T13:09:50.070Z,12.20
2023-03-10T13:12:21.322Z,12.30
2023-03-10T13:14:51.061Z,12.20
2023-03-10T13:17:21.154Z,12.10
2023-03-10T13:19:57.510Z,12.10
2023-03-10T13:22:24.616Z,12.00
2023-03-10T13:25:03.200Z,12.00
2023-03-10T13:27:31.275Z,11.90
2023-03-10T13:29:59.606Z,11.90
2023-03-10T13:32:26.846Z,12.00
2023-03-10T13:34:54.003Z,11.90
2023-03-10T13:37:21.158Z,11.90
2023-03-10T13:39:48.303Z,11.80
2023-03-10T13:42:43.391Z,11.70
2023-03-10T13:45:21.856Z,11.70
2023-03-10T13:47:49.638Z,11.50
2023-03-10T13:50:19.828Z,11.40
2023-03-10T13:52:54.215Z,11.40
2023-03-10T13:55:23.455Z,11.30
2023-03-10T13:57:52.460Z,11.30
2023-03-10T14:00:20.500Z,11.40
2023-03-10T14:02:47.999Z,11.50
2023-03-10T14:05:33.835Z,11.50
2023-03-10T14:08:01.068Z,11.50
2023-03-10T14:10:28.221Z,11.40
2023-03-10T14:12:55.336Z,11.30
2023-03-10T14:15:23.695Z,11.20
2023-03-10T14:18:06.002Z,11.10
2023-03-10T14:20:39.698Z,11.00
2023-03-10T14:23:19.055Z,11.00
2023-03-10T14:25:46.469Z,11.00
2023-03-10T14:28:17.767Z,10.90
2023-03-10T14:30:44.986Z,10.90
2023-03-10T14:33:15.886Z,10.90
2023-03-10T14:35:49.878Z,10.90
2023-03-10T14:38:17.178Z,10.90
2023-03-10T14:40:45.286Z,10.90
2023-03-10T14:43:16.048Z,10.90
2023-03-10T14:45:44.383Z,10.90
2023-03-10T14:48:12.818Z,10.80
2023-03-10T14:50:40.500Z,10.80
2023-03-10T14:53:11.054Z,10.80
2023-03-10T14:55:38.566Z,10.80
2023-03-10T14:58:05.786Z,10.80
2023-03-10T15:00:33.000Z,10.80
2023-03-10T15:03:00.235Z,10.80
2023-03-10T15:05:45.113Z,10.60
2023-03-10T15:08:14.926Z,10.50
2023-03-10T15:10:43.617Z,10.40
2023-03-10T15:13:13.355Z,10.20
2023-03-10T15:15:41.322Z,10.10
2023-03-10T15:18:10.382Z,10.00
2023-03-10T15:20:37.525Z,9.90
2023-03-10T15:23:04.697Z,9.80
2023-03-10T15:25:31.875Z,9.70
2023-03-10T15:27:58.977Z,9.70
2023-03-10T15:30:33.013Z,9.70
2023-03-10T15:33:00.120Z,9.60
2023-03-10T15:35:29.146Z,9.60
2023-03-10T15:37:56.343Z,9.60
2023-03-10T15:40:24.515Z,9.50
2023-03-10T15:42:51.754Z,9.50
2023-03-10T15:45:19.240Z,9.50
2023-03-10T15:47:46.366Z,9.30
2023-03-10T15:50:13.897Z,9.30
2023-03-10T15:52:45.285Z,9.20
2023-03-10T15:55:14.840Z,9.10
2023-03-10T15:57:43.400Z,9.00
2023-03-10T16:00:11.442Z,9.00
2023-03-10T16:02:38.530Z,8.80
2023-03-10T16:05:05.926Z,8.80
2023-03-10T16:07:36.034Z,8.80
2023-03-10T16:10:03.593Z,8.70
2023-03-10T16:12:30.707Z,8.60
2023-03-10T16:14:57.926Z,8.60
2023-03-10T16:17:25.056Z,8.60
2023-03-10T16:19:52.249Z,8.60
2023-03-10T16:22:19.418Z,8.60
2023-03-10T16:24:46.671Z,8.60
2023-03-10T16:27:13.839Z,8.60
2023-03-10T16:29:41.027Z,8.60
2023-03-10T16:32:08.268Z,8.70
2023-03-10T16:34:35.491Z,8.60
2023-03-10T16:37:02.624Z,8.60
2023-03-10T16:39:32.678Z,8.60
2023-03-10T16:42:00.005Z,8.60
2023-03-10T16:44:27.023Z,8.70
2023-03-10T16:46:54.125Z,8.70
2023-03-10T16:49:21.168Z,8.70
2023-03-10T16:51:48.293Z,8.70
2023-03-10T16:54:21.728Z,8.70
2023-03-10T16:56:49.566Z,8.70
2023-03-10T16:59:20.583Z,8.70
2023-03-10T17:01:48.096Z,8.70
2023-03-10T17:04:15.123Z,8.60
2023-03-10T17:06:42.227Z,8.60
2023-03-10T17:09:09.541Z,8.60
2023-03-10T17:11:38.051Z,8.60
2023-03-10T17:14:08.175Z,8.60
2023-03-10T17:16:35.326Z,8.50
2023-03-10T17:19:03.730Z,8.50
2023-03-10T17:21:33.277Z,8.40
2023-03-10T17:24:00.468Z,8.40
2023-03-10T17:26:27.609Z,8.40
2023-03-10T17:28:54.861Z,8.30
2023-03-10T17:31:26.193Z,8.30
2023-03-10T17:33:58.843Z,8.30
2023-03-10T17:36:26.014Z,8.30
2023-03-10T17:38:53.543Z,8.20
2023-03-10T17:41:21.278Z,8.20
2023-03-10T17:43:49.436Z,8.20
2023-03-10T17:46:17.576Z,8.20
2023-03-10T17:48:45.009Z,8.20
2023-03-10T17:51:16.376Z,8.20
2023-03-10T17:53:44.260Z,8.10
2023-03-10T17:56:11.932Z,8.10
2023-03-10T17:58:39.190Z,8.10
2023-03-10T18:01:10.530Z,8.00
2023-03-10T18:03:38.239Z,8.00
2023-03-10T18:06:09.401Z,7.90
2023-03-10T18:08:36.624Z,7.90
2023-03-10T18:11:04.236Z,7.90
2023-03-10T18:13:31.370Z,7.80
2023-03-10T18:15:58.501Z,7.80
2023-03-10T18:18:26.011Z,7.80
2023-03-10T18:20:53.157Z,7.70
2023-03-10T18:23:22.085Z,7.70
2023-03-10T18:25:49.834Z,7.60
2023-03-10T18:28:18.852Z,7.60
2023-03-10T18:30:46.846Z,7.60
2023-03-10T18:33:14.581Z,7.50
2023-03-10T18:35:42.561Z,7.50
2023-03-10T18:38:13.248Z,7.50
2023-03-10T18:40:40.632Z,7.50
2023-03-10T18:43:09.442Z,7.50
2023-03-10T18:45:39.296Z,7.50
2023-03-10T18:48:07.434Z,7.40
2023-03-10T18:50:34.603Z,7.50
2023-03-10T18:53:02.010Z,7.50
2023-03-10T18:55:29.053Z,7.50
2023-03-10T18:57:56.150Z,7.40
2023-03-10T19:00:23.776Z,7.20
2023-03-10T19:02:52.061Z,7.00
2023-03-10T19:05:19.245Z,6.80
2023-03-10T19:07:46.452Z,6.60
2023-03-10T19:10:20.100Z,6.40
2023-03-10T19:12:47.201Z,6.30
2023-03-10T19:15:14.503Z,6.30
2023-03-10T19:17:41.709Z,6.20
2023-03-10T19:20:11.221Z,6.20
2023-03-10T19:22:38.442Z,6.20
2023-03-10T19:25:06.531Z,6.20
2023-03-10T19:27:33.766Z,6.20
2023-03-10T19:30:00.824Z,6.30
2023-03-10T19:32:27.904Z,6.30
2023-03-10T19:34:54.973Z,6.30
2023-03-10T19:37:22.171Z,6.30
2023-03-10T19:39:49.298Z,6.20
2023-03-10T19:42:16.360Z,6.20
2023-03-10T19:44:43.422Z,6.20
2023-03-10T19:47:10.640Z,6.20
2023-03-10T19:49:38.262Z,6.20
2023-03-10T19:52:09.430Z,6.20
2023-03-10T19:54:36.654Z,6.20
2023-03-10T19:57:30.543Z,6.20
2023-03-10T19:59:57.663Z,6.30
2023-03-10T20:02:25.891Z,6.30
2023-03-10T20:05:33.432Z,6.40
2023-03-10T20:08:02.333Z,6.40
2023-03-10T20:10:29.523Z,6.40
2023-03-10T20:12:56.755Z,6.40
2023-03-10T20:15:23.884Z,6.50
2023-03-10T20:17:51.090Z,6.50
2023-03-10T20:20:26.936Z,6.50
2023-03-10T20:22:54.120Z,6.50
2023-03-10T20:25:49.541Z,6.50
2023-03-10T20:28:16.624Z,6.60
2023-03-10T20:31:07.612Z,6.50
2023-03-10T20:33:35.257Z,6.60
2023-03-10T20:36:08.443Z,6.50
2023-03-10T20:38:35.618Z,6.60
2023-03-10T20:41:38.851Z,6.60
2023-03-10T20:44:09.454Z,6.60
2023-03-10T20:46:36.542Z,6.60
2023-03-10T20:49:15.905Z,6.60
2023-03-10T20:51:42.993Z,6.60
2023-03-10T20:54:10.048Z,6.60
2023-03-10T20:56:37.108Z,6.60
2023-03-10T20:59:07.642Z,6.60
2023-03-10T21:05:34.101Z,6.60
2023-03-10T21:08:01.176Z,6.60
2023-03-10T21:10:28.336Z,6.60
2023-03-10T21:12:55.496Z,6.50
2023-03-10T21:15:25.330Z,6.40
2023-03-10T21:17:52.367Z,6.30
2023-03-10T21:20:22.695Z,6.30
2023-03-10T21:22:49.748Z,6.20
2023-03-10T21:25:17.908Z,6.20
2023-03-10T21:27:46.431Z,6.10
2023-03-10T21:30:13.627Z,6.10
2023-03-10T21:32:40.790Z,6.00
2023-03-10T21:35:08.153Z,5.90
2023-03-10T21:37:37.888Z,5.70
2023-03-10T21:40:08.847Z,5.60
2023-03-10T21:42:36.535Z,5.50
2023-03-10T21:45:04.427Z,5.40
2023-03-10T21:47:31.478Z,5.30
2023-03-10T21:49:58.559Z,5.20
2023-03-10T21:52:25.853Z,5.20
2023-03-10T21:54:52.912Z,5.20
2023-03-10T21:57:20.047Z,5.20
2023-03-10T21:59:47.154Z,5.20
2023-03-10T22:02:21.855Z,5.10
2023-03-10T22:04:49.967Z,5.10
2023-03-10T22:07:17.083Z,5.00
2023-03-10T22:09:44.228Z,5.00
2023-03-10T22:12:12.723Z,5.00
2023-03-10T22:14:40.211Z,5.00
2023-03-10T22:17:07.313Z,5.00
2023-03-10T22:19:34.413Z,4.90
2023-03-10T22:22:02.497Z,4.90
2023-03-10T22:24:29.643Z,4.90
2023-03-10T22:26:56.795Z,4.90
2023-03-10T22:29:23.890Z,4.90
2023-03-10T22:31:51.791Z,4.80
2023-03-10T22:34:18.930Z,4.80
2023-03-10T22:36:47.089Z,4.80
2023-03-10T22:39:14.239Z,4.80
2023-03-10T22:41:41.335Z,4.70
2023-03-10T22:44:08.445Z,4.60
2023-03-10T22:46:35.640Z,4.50
2023-03-10T22:49:02.831Z,4.30
2023-03-10T22:51:30.026Z,4.20
2023-03-10T22:53:57.071Z,4.10
2023-03-10T22:56:24.142Z,4.00
2023-03-10T22:58:51.342Z,3.90
2023-03-10T23:01:18.914Z,3.90
2023-03-10T23:03:46.108Z,3.80
2023-03-10T23:06:16.296Z,3.90
2023-03-10T23:08:43.897Z,3.90
2023-03-10T23:11:11.289Z,3.80
2023-03-10T23:13:38.407Z,3.80
2023-03-10T23:16:05.737Z,3.80
2023-03-10T23:18:32.931Z,3.80
2023-03-10T23:21:00.038Z,3.80
2023-03-10T23:23:27.102Z,3.80
2023-03-10T23:25:55.172Z,3.80
2023-03-10T23:28:22.335Z,3.70
2023-03-10T23:30:49.594Z,3.70
2023-03-10T23:33:17.545Z,3.70
2023-03-10T23:35:46.278Z,3.70
2023-03-10T23:38:13.494Z,3.60
2023-03-10T23:40:40.621Z,3.60
2023-03-10T23:43:08.013Z,3.60
2023-03-10T23:45:35.674Z,3.60
2023-03-10T23:48:04.568Z,3.60
2023-03-10T23:50:35.012Z,3.50
2023-03-10T23:53:02.561Z,3.50
2023-03-10T23:55:30.686Z,3.40
2023-03-10T23:57:57.833Z,3.40
